sensor_id;sensor_type;location;lat;lon;timestamp;pressure;altitude;pressure_sealevel;temperature;humidity
78841;BME280;68379;47.190;27.558;2023-05-10T00:00:11;100567.10;;;7.68;72.73
78841;BME280;68379;47.190;27.558;2023-05-10T00:03:00;100561.14;;;7.67;72.71
78841;BME280;68379;47.190;27.558;2023-05-10T00:05:29;100562.20;;;7.66;72.61
78841;BME280;68379;47.190;27.558;2023-05-10T00:07:58;100558.70;;;7.65;72.88
78841;BME280;68379;47.190;27.558;2023-05-10T00:10:30;100551.86;;;7.64;72.74
78841;BME280;68379;47.190;27.558;2023-05-10T00:12:59;100551.54;;;7.62;72.79
78841;BME280;68379;47.190;27.558;2023-05-10T00:15:28;100550.33;;;7.61;72.75
78841;BME280;68379;47.190;27.558;2023-05-10T00:17:58;100551.39;;;7.60;72.76
78841;BME280;68379;47.190;27.558;2023-05-10T00:20:27;100548.22;;;7.60;72.77
78841;BME280;68379;47.190;27.558;2023-05-10T00:22:56;100545.92;;;7.61;72.85
78841;BME280;68379;47.190;27.558;2023-05-10T00:25:25;100543.29;;;7.61;72.99
78841;BME280;68379;47.190;27.558;2023-05-10T00:27:54;100543.30;;;7.61;72.83
78841;BME280;68379;47.190;27.558;2023-05-10T00:30:25;100545.40;;;7.61;72.93
78841;BME280;68379;47.190;27.558;2023-05-10T00:32:54;100548.61;;;7.58;73.20
78841;BME280;68379;47.190;27.558;2023-05-10T00:35:24;100551.66;;;7.53;73.73
78841;BME280;68379;47.190;27.558;2023-05-10T00:37:54;100548.79;;;7.47;74.32
78841;BME280;68379;47.190;27.558;2023-05-10T00:40:23;100548.50;;;7.42;74.52
78841;BME280;68379;47.190;27.558;2023-05-10T00:42:52;100554.21;;;7.37;74.92
78841;BME280;68379;47.190;27.558;2023-05-10T00:45:21;100553.55;;;7.33;75.07
78841;BME280;68379;47.190;27.558;2023-05-10T00:47:51;100551.50;;;7.30;75.61
78841;BME280;68379;47.190;27.558;2023-05-10T00:50:24;100552.96;;;7.26;76.10
78841;BME280;68379;47.190;27.558;2023-05-10T00:52:54;100553.21;;;7.21;76.81
78841;BME280;68379;47.190;27.558;2023-05-10T00:55:23;100555.02;;;7.18;75.93
78841;BME280;68379;47.190;27.558;2023-05-10T00:57:53;100550.79;;;7.18;75.57
78841;BME280;68379;47.190;27.558;2023-05-10T01:00:22;100548.30;;;7.20;75.55
78841;BME280;68379;47.190;27.558;2023-05-10T01:02:51;100546.53;;;7.21;75.65
78841;BME280;68379;47.190;27.558;2023-05-10T01:05:21;100544.91;;;7.23;75.49
78841;BME280;68379;47.190;27.558;2023-05-10T01:07:50;100544.36;;;7.25;75.52
78841;BME280;68379;47.190;27.558;2023-05-10T01:10:19;100544.50;;;7.28;75.39
78841;BME280;68379;47.190;27.558;2023-05-10T01:12:48;100544.61;;;7.33;75.36
78841;BME280;68379;47.190;27.558;2023-05-10T01:15:18;100542.77;;;7.37;75.36
78841;BME280;68379;47.190;27.558;2023-05-10T01:17:49;100540.28;;;7.40;75.19
78841;BME280;68379;47.190;27.558;2023-05-10T01:20:18;100538.17;;;7.40;74.96
78841;BME280;68379;47.190;27.558;2023-05-10T01:26:22;100535.92;;;7.38;74.99
78841;BME280;68379;47.190;27.558;2023-05-10T01:29:16;100531.38;;;7.36;75.13
78841;BME280;68379;47.190;27.558;2023-05-10T01:32:22;100531.42;;;7.33;75.21
78841;BME280;68379;47.190;27.558;2023-05-10T01:35:01;100528.64;;;7.31;75.19
78841;BME280;68379;47.190;27.558;2023-05-10T01:37:40;100527.77;;;7.29;75.31
78841;BME280;68379;47.190;27.558;2023-05-10T01:40:16;100523.77;;;7.27;75.24
78841;BME280;68379;47.190;27.558;2023-05-10T01:42:51;100523.09;;;7.26;75.26
78841;BME280;68379;47.190;27.558;2023-05-10T01:45:28;100519.27;;;7.23;75.29
78841;BME280;68379;47.190;27.558;2023-05-10T01:48:06;100520.80;;;7.26;75.27
78841;BME280;68379;47.190;27.558;2023-05-10T01:50:38;100518.05;;;7.22;75.33
78841;BME280;68379;47.190;27.558;2023-05-10T01:53:10;100517.22;;;7.18;75.38
78841;BME280;68379;47.190;27.558;2023-05-10T01:55:44;100518.85;;;7.15;75.30
78841;BME280;68379;47.190;27.558;2023-05-10T01:58:21;100517.33;;;7.12;75.22
78841;BME280;68379;47.190;27.558;2023-05-10T02:00:52;100519.33;;;7.06;75.31
78841;BME280;68379;47.190;27.558;2023-05-10T02:03:24;100519.05;;;7.01;75.43
78841;BME280;68379;47.190;27.558;2023-05-10T02:05:56;100518.03;;;6.99;75.47
78841;BME280;68379;47.190;27.558;2023-05-10T02:08:26;100514.94;;;6.94;75.67
78841;BME280;68379;47.190;27.558;2023-05-10T02:10:57;100515.16;;;6.90;75.60
78841;BME280;68379;47.190;27.558;2023-05-10T02:13:28;100513.64;;;6.86;75.57
78841;BME280;68379;47.190;27.558;2023-05-10T02:15:58;100510.54;;;6.81;75.84
78841;BME280;68379;47.190;27.558;2023-05-10T02:18:28;100513.92;;;6.78;75.82
78841;BME280;68379;47.190;27.558;2023-05-10T02:20:59;100511.52;;;6.73;75.92
78841;BME280;68379;47.190;27.558;2023-05-10T02:23:31;100513.83;;;6.70;76.16
78841;BME280;68379;47.190;27.558;2023-05-10T02:26:01;100511.08;;;6.67;76.28
78841;BME280;68379;47.190;27.558;2023-05-10T02:28:33;100506.20;;;6.63;76.19
78841;BME280;68379;47.190;27.558;2023-05-10T03:01:10;100515.48;;;6.02;78.11
78841;BME280;68379;47.190;27.558;2023-05-10T03:03:39;100517.77;;;6.02;77.94
78841;BME280;68379;47.190;27.558;2023-05-10T03:06:08;100518.81;;;6.02;77.88
78841;BME280;68379;47.190;27.558;2023-05-10T03:08:38;100521.08;;;6.04;77.79
78841;BME280;68379;47.190;27.558;2023-05-10T03:11:24;100524.92;;;6.06;77.84
78841;BME280;68379;47.190;27.558;2023-05-10T03:14:07;100524.20;;;6.07;77.89
78841;BME280;68379;47.190;27.558;2023-05-10T03:16:44;100521.91;;;6.09;77.97
78841;BME280;68379;47.190;27.558;2023-05-10T03:19:21;100523.45;;;6.13;78.11
78841;BME280;68379;47.190;27.558;2023-05-10T03:21:54;100524.98;;;6.18;78.19
78841;BME280;68379;47.190;27.558;2023-05-10T03:24:28;100524.59;;;6.21;78.25
78841;BME280;68379;47.190;27.558;2023-05-10T03:27:00;100525.60;;;6.26;78.42
78841;BME280;68379;47.190;27.558;2023-05-10T03:29:31;100521.88;;;6.29;78.28
78841;BME280;68379;47.190;27.558;2023-05-10T03:32:00;100524.10;;;6.34;78.05
78841;BME280;68379;47.190;27.558;2023-05-10T03:34:30;100523.54;;;6.37;77.96
78841;BME280;68379;47.190;27.558;2023-05-10T03:36:59;100522.27;;;6.41;77.77
78841;BME280;68379;47.190;27.558;2023-05-10T03:39:31;100519.42;;;6.45;77.63
78841;BME280;68379;47.190;27.558;2023-05-10T03:42:00;100524.43;;;6.51;77.43
78841;BME280;68379;47.190;27.558;2023-05-10T03:44:29;100524.91;;;6.56;77.42
78841;BME280;68379;47.190;27.558;2023-05-10T03:46:59;100527.30;;;6.62;77.32
78841;BME280;68379;47.190;27.558;2023-05-10T03:49:28;100525.64;;;6.68;77.29
78841;BME280;68379;47.190;27.558;2023-05-10T03:51:57;100524.52;;;6.73;77.53
78841;BME280;68379;47.190;27.558;2023-05-10T03:54:26;100528.33;;;6.77;77.37
78841;BME280;68379;47.190;27.558;2023-05-10T03:56:55;100523.35;;;6.82;77.40
78841;BME280;68379;47.190;27.558;2023-05-10T03:59:24;100525.55;;;6.88;76.97
78841;BME280;68379;47.190;27.558;2023-05-10T04:01:54;100525.44;;;6.96;76.46
78841;BME280;68379;47.190;27.558;2023-05-10T04:04:24;100530.59;;;7.05;76.29
78841;BME280;68379;47.190;27.558;2023-05-10T04:06:53;100532.73;;;7.16;75.87
78841;BME280;68379;47.190;27.558;2023-05-10T04:09:23;100534.32;;;7.27;75.99
78841;BME280;68379;47.190;27.558;2023-05-10T04:11:52;100536.48;;;7.35;76.04
78841;BME280;68379;47.190;27.558;2023-05-10T04:14:22;100535.59;;;7.48;75.70
78841;BME280;68379;47.190;27.558;2023-05-10T04:16:51;100539.94;;;7.61;75.27
78841;BME280;68379;47.190;27.558;2023-05-10T04:19:20;100539.38;;;7.74;75.04
78841;BME280;68379;47.190;27.558;2023-05-10T04:21:49;100543.01;;;7.89;74.48
78841;BME280;68379;47.190;27.558;2023-05-10T04:24:19;100546.65;;;8.02;74.23
78841;BME280;68379;47.190;27.558;2023-05-10T04:26:48;100544.77;;;8.18;74.03
78841;BME280;68379;47.190;27.558;2023-05-10T04:29:17;100545.21;;;8.33;74.05
78841;BME280;68379;47.190;27.558;2023-05-10T04:31:46;100547.40;;;8.49;73.43
78841;BME280;68379;47.190;27.558;2023-05-10T04:34:17;100548.38;;;8.61;73.32
78841;BME280;68379;47.190;27.558;2023-05-10T04:36:46;100554.42;;;8.77;73.14
78841;BME280;68379;47.190;27.558;2023-05-10T04:39:16;100548.34;;;8.89;72.94
78841;BME280;68379;47.190;27.558;2023-05-10T04:41:45;100549.26;;;9.04;72.67
78841;BME280;68379;47.190;27.558;2023-05-10T04:44:14;100549.79;;;9.20;72.35
78841;BME280;68379;47.190;27.558;2023-05-10T04:46:43;100553.82;;;9.36;72.09
78841;BME280;68379;47.190;27.558;2023-05-10T04:49:12;100555.91;;;9.53;71.75
78841;BME280;68379;47.190;27.558;2023-05-10T04:51:42;100557.11;;;9.62;70.88
78841;BME280;68379;47.190;27.558;2023-05-10T04:54:11;100552.54;;;9.62;70.63
78841;BME280;68379;47.190;27.558;2023-05-10T04:56:40;100553.27;;;9.60;69.53
78841;BME280;68379;47.190;27.558;2023-05-10T04:59:10;100555.66;;;9.63;70.23
78841;BME280;68379;47.190;27.558;2023-05-10T05:01:39;100557.01;;;9.74;69.93
78841;BME280;68379;47.190;27.558;2023-05-10T05:04:08;100553.63;;;9.82;69.48
78841;BME280;68379;47.190;27.558;2023-05-10T05:06:37;100554.36;;;9.87;68.78
78841;BME280;68379;47.190;27.558;2023-05-10T05:09:06;100553.85;;;9.94;69.37
78841;BME280;68379;47.190;27.558;2023-05-10T05:11:35;100553.05;;;10.11;69.12
78841;BME280;68379;47.190;27.558;2023-05-10T05:14:04;100554.63;;;10.26;69.01
78841;BME280;68379;47.190;27.558;2023-05-10T05:16:33;100550.56;;;10.40;68.68
78841;BME280;68379;47.190;27.558;2023-05-10T05:19:02;100549.48;;;10.53;68.55
78841;BME280;68379;47.190;27.558;2023-05-10T05:21:31;100548.30;;;10.76;68.78
78841;BME280;68379;47.190;27.558;2023-05-10T05:24:01;100547.11;;;11.05;68.73
78841;BME280;68379;47.190;27.558;2023-05-10T05:26:30;100548.39;;;11.33;67.96
78841;BME280;68379;47.190;27.558;2023-05-10T05:28:59;100550.42;;;11.58;67.30
78841;BME280;68379;47.190;27.558;2023-05-10T05:31:27;100546.30;;;11.75;66.11
78841;BME280;68379;47.190;27.558;2023-05-10T05:33:56;100552.77;;;11.90;65.94
78841;BME280;68379;47.190;27.558;2023-05-10T05:36:25;100555.98;;;11.99;62.65
78841;BME280;68379;47.190;27.558;2023-05-10T05:38:55;100556.30;;;11.95;62.33
78841;BME280;68379;47.190;27.558;2023-05-10T05:41:24;100555.70;;;11.97;62.33
78841;BME280;68379;47.190;27.558;2023-05-10T05:43:53;100556.33;;;12.05;62.68
78841;BME280;68379;47.190;27.558;2023-05-10T05:46:22;100557.31;;;12.17;63.15
78841;BME280;68379;47.190;27.558;2023-05-10T05:48:51;100557.55;;;12.26;61.03
78841;BME280;68379;47.190;27.558;2023-05-10T05:51:20;100557.25;;;12.35;61.09
78841;BME280;68379;47.190;27.558;2023-05-10T05:53:50;100559.55;;;12.40;58.58
78841;BME280;68379;47.190;27.558;2023-05-10T05:56:19;100556.79;;;12.43;59.85
78841;BME280;68379;47.190;27.558;2023-05-10T05:58:52;100560.52;;;12.62;59.95
78841;BME280;68379;47.190;27.558;2023-05-10T06:01:22;100562.63;;;12.77;59.19
78841;BME280;68379;47.190;27.558;2023-05-10T06:03:51;100558.71;;;12.92;58.21
78841;BME280;68379;47.190;27.558;2023-05-10T06:06:20;100560.30;;;13.06;59.13
78841;BME280;68379;47.190;27.558;2023-05-10T06:08:49;100563.25;;;13.31;57.96
78841;BME280;68379;47.190;27.558;2023-05-10T06:11:19;100565.39;;;13.45;54.61
78841;BME280;68379;47.190;27.558;2023-05-10T06:13:49;100562.36;;;13.45;55.29
78841;BME280;68379;47.190;27.558;2023-05-10T06:16:19;100563.77;;;13.46;54.46
78841;BME280;68379;47.190;27.558;2023-05-10T06:18:48;100561.48;;;13.50;55.40
78841;BME280;68379;47.190;27.558;2023-05-10T06:21:17;100564.61;;;13.42;50.56
78841;BME280;68379;47.190;27.558;2023-05-10T06:23:46;100565.88;;;13.33;51.33
78841;BME280;68379;47.190;27.558;2023-05-10T06:26:15;100565.79;;;13.31;52.63
78841;BME280;68379;47.190;27.558;2023-05-10T06:28:44;100559.48;;;13.28;51.44
78841;BME280;68379;47.190;27.558;2023-05-10T06:31:13;100558.91;;;13.30;52.72
78841;BME280;68379;47.190;27.558;2023-05-10T06:33:42;100555.89;;;13.30;53.08
78841;BME280;68379;47.190;27.558;2023-05-10T06:36:11;100556.89;;;13.35;52.51
78841;BME280;68379;47.190;27.558;2023-05-10T06:38:41;100558.33;;;13.35;50.33
78841;BME280;68379;47.190;27.558;2023-05-10T06:41:10;100559.46;;;13.23;48.61
78841;BME280;68379;47.190;27.558;2023-05-10T06:43:39;100559.69;;;13.28;49.92
78841;BME280;68379;47.190;27.558;2023-05-10T06:46:09;100557.60;;;13.40;49.95
78841;BME280;68379;47.190;27.558;2023-05-10T06:48:38;100555.87;;;13.53;48.85
78841;BME280;68379;47.190;27.558;2023-05-10T06:51:07;100559.14;;;13.42;48.44
78841;BME280;68379;47.190;27.558;2023-05-10T06:53:36;100553.36;;;13.49;50.22
78841;BME280;68379;47.190;27.558;2023-05-10T06:56:06;100558.55;;;13.61;48.77
78841;BME280;68379;47.190;27.558;2023-05-10T06:58:35;100554.96;;;13.70;49.57
78841;BME280;68379;47.190;27.558;2023-05-10T07:01:05;100554.96;;;13.88;49.90
78841;BME280;68379;47.190;27.558;2023-05-10T07:03:34;100559.88;;;14.01;48.31
78841;BME280;68379;47.190;27.558;2023-05-10T07:06:04;100557.22;;;14.15;47.12
78841;BME280;68379;47.190;27.558;2023-05-10T07:08:35;100554.21;;;14.35;48.47
78841;BME280;68379;47.190;27.558;2023-05-10T07:11:05;100555.80;;;14.64;49.23
78841;BME280;68379;47.190;27.558;2023-05-10T07:13:35;100554.34;;;14.88;46.64
78841;BME280;68379;47.190;27.558;2023-05-10T07:16:06;100558.31;;;15.10;47.23
78841;BME280;68379;47.190;27.558;2023-05-10T07:18:36;100561.23;;;15.36;44.86
78841;BME280;68379;47.190;27.558;2023-05-10T07:21:05;100558.59;;;15.53;46.48
78841;BME280;68379;47.190;27.558;2023-05-10T07:23:34;100556.96;;;15.64;43.03
78841;BME280;68379;47.190;27.558;2023-05-10T07:26:04;100559.02;;;15.70;42.53
78841;BME280;68379;47.190;27.558;2023-05-10T07:28:34;100558.06;;;15.67;39.32
78841;BME280;68379;47.190;27.558;2023-05-10T07:31:06;100559.06;;;15.47;38.83
78841;BME280;68379;47.190;27.558;2023-05-10T07:33:35;100557.02;;;15.52;40.64
78841;BME280;68379;47.190;27.558;2023-05-10T07:36:04;100557.38;;;15.71;41.39
78841;BME280;68379;47.190;27.558;2023-05-10T07:38:33;100558.83;;;15.89;39.68
78841;BME280;68379;47.190;27.558;2023-05-10T07:41:02;100559.13;;;16.00;38.21
78841;BME280;68379;47.190;27.558;2023-05-10T07:43:31;100558.69;;;16.13;38.20
78841;BME280;68379;47.190;27.558;2023-05-10T07:46:00;100555.42;;;16.28;39.80
78841;BME280;68379;47.190;27.558;2023-05-10T07:48:29;100557.27;;;16.47;39.20
78841;BME280;68379;47.190;27.558;2023-05-10T07:50:59;100554.52;;;16.35;36.42
78841;BME280;68379;47.190;27.558;2023-05-10T07:53:28;100551.76;;;16.16;35.97
78841;BME280;68379;47.190;27.558;2023-05-10T07:55:58;100551.80;;;15.86;37.09
78841;BME280;68379;47.190;27.558;2023-05-10T07:58:28;100553.35;;;15.95;36.30
78841;BME280;68379;47.190;27.558;2023-05-10T08:00:57;100556.05;;;16.05;34.27
78841;BME280;68379;47.190;27.558;2023-05-10T08:03:26;100555.14;;;16.05;33.85
78841;BME280;68379;47.190;27.558;2023-05-10T08:05:55;100559.89;;;16.17;35.61
78841;BME280;68379;47.190;27.558;2023-05-10T08:08:24;100561.83;;;16.32;34.89
78841;BME280;68379;47.190;27.558;2023-05-10T08:10:53;100557.52;;;16.29;34.10
78841;BME280;68379;47.190;27.558;2023-05-10T08:13:22;100552.02;;;16.28;32.39
78841;BME280;68379;47.190;27.558;2023-05-10T08:15:52;100552.67;;;16.26;33.41
78841;BME280;68379;47.190;27.558;2023-05-10T08:18:21;100551.12;;;16.32;33.11
78841;BME280;68379;47.190;27.558;2023-05-10T08:20:50;100544.59;;;16.41;32.87
78841;BME280;68379;47.190;27.558;2023-05-10T08:23:19;100545.79;;;16.35;33.51
78841;BME280;68379;47.190;27.558;2023-05-10T08:25:48;100548.34;;;16.54;32.91
78841;BME280;68379;47.190;27.558;2023-05-10T08:28:17;100546.95;;;16.74;33.03
78841;BME280;68379;47.190;27.558;2023-05-10T08:30:46;100546.38;;;16.95;32.89
78841;BME280;68379;47.190;27.558;2023-05-10T08:33:15;100542.59;;;17.08;32.45
78841;BME280;68379;47.190;27.558;2023-05-10T08:35:44;100540.45;;;17.37;33.79
78841;BME280;68379;47.190;27.558;2023-05-10T08:38:13;100542.24;;;17.53;31.44
78841;BME280;68379;47.190;27.558;2023-05-10T08:40:44;100539.89;;;17.60;31.37
78841;BME280;68379;47.190;27.558;2023-05-10T08:43:14;100535.99;;;17.90;32.02
78841;BME280;68379;47.190;27.558;2023-05-10T08:45:44;100536.48;;;18.09;30.39
78841;BME280;68379;47.190;27.558;2023-05-10T08:48:15;100538.76;;;18.19;29.94
78841;BME280;68379;47.190;27.558;2023-05-10T08:50:45;100537.39;;;18.36;27.52
78841;BME280;68379;47.190;27.558;2023-05-10T08:53:17;100530.48;;;18.38;27.11
78841;BME280;68379;47.190;27.558;2023-05-10T08:55:48;100535.52;;;18.52;26.52
78841;BME280;68379;47.190;27.558;2023-05-10T08:58:17;100536.80;;;18.48;27.37
78841;BME280;68379;47.190;27.558;2023-05-10T09:00:48;100535.41;;;18.51;26.92
78841;BME280;68379;47.190;27.558;2023-05-10T09:03:17;100536.92;;;18.32;26.71
78841;BME280;68379;47.190;27.558;2023-05-10T09:05:46;100539.67;;;18.13;27.76
78841;BME280;68379;47.190;27.558;2023-05-10T09:08:17;100533.16;;;18.05;26.27
78841;BME280;68379;47.190;27.558;2023-05-10T09:10:46;100533.78;;;17.79;26.31
78841;BME280;68379;47.190;27.558;2023-05-10T09:13:17;100534.95;;;17.36;26.34
78841;BME280;68379;47.190;27.558;2023-05-10T09:15:48;100540.25;;;17.31;27.56
78841;BME280;68379;47.190;27.558;2023-05-10T09:18:18;100536.94;;;17.17;26.55
78841;BME280;68379;47.190;27.558;2023-05-10T09:20:48;100538.13;;;17.31;27.63
78841;BME280;68379;47.190;27.558;2023-05-10T09:23:17;100537.14;;;17.55;27.16
78841;BME280;68379;47.190;27.558;2023-05-10T09:25:46;100536.87;;;17.81;27.32
78841;BME280;68379;47.190;27.558;2023-05-10T09:28:15;100535.43;;;18.09;27.10
78841;BME280;68379;47.190;27.558;2023-05-10T09:30:44;100529.92;;;18.47;27.87
78841;BME280;68379;47.190;27.558;2023-05-10T09:33:23;100535.64;;;18.53;24.42
78841;BME280;68379;47.190;27.558;2023-05-10T09:35:53;100534.64;;;18.34;26.01
78841;BME280;68379;47.190;27.558;2023-05-10T09:38:22;100535.00;;;18.13;25.22
78841;BME280;68379;47.190;27.558;2023-05-10T09:40:54;100534.14;;;17.91;24.59
78841;BME280;68379;47.190;27.558;2023-05-10T09:43:26;100533.95;;;17.57;24.63
78841;BME280;68379;47.190;27.558;2023-05-10T09:45:55;100530.38;;;17.38;26.79
78841;BME280;68379;47.190;27.558;2023-05-10T09:48:25;100529.51;;;17.32;28.11
78841;BME280;68379;47.190;27.558;2023-05-10T09:50:59;100528.02;;;17.23;29.51
78841;BME280;68379;47.190;27.558;2023-05-10T09:53:29;100524.73;;;17.02;29.12
78841;BME280;68379;47.190;27.558;2023-05-10T09:55:58;100528.38;;;16.84;29.64
78841;BME280;68379;47.190;27.558;2023-05-10T09:58:27;100527.38;;;16.69;29.71
78841;BME280;68379;47.190;27.558;2023-05-10T10:00:56;100529.75;;;16.62;30.84
78841;BME280;68379;47.190;27.558;2023-05-10T10:03:26;100529.25;;;16.64;30.05
78841;BME280;68379;47.190;27.558;2023-05-10T10:05:58;100528.75;;;16.64;30.00
78841;BME280;68379;47.190;27.558;2023-05-10T10:08:30;100527.12;;;16.61;29.63
78841;BME280;68379;47.190;27.558;2023-05-10T10:11:00;100529.61;;;16.57;30.09
78841;BME280;68379;47.190;27.558;2023-05-10T10:13:30;100528.09;;;16.52;29.94
78841;BME280;68379;47.190;27.558;2023-05-10T10:16:00;100529.64;;;16.60;31.14
78841;BME280;68379;47.190;27.558;2023-05-10T10:18:31;100523.50;;;16.75;30.54
78841;BME280;68379;47.190;27.558;2023-05-10T10:21:02;100526.11;;;16.87;31.09
78841;BME280;68379;47.190;27.558;2023-05-10T10:23:32;100526.01;;;17.01;30.38
78841;BME280;68379;47.190;27.558;2023-05-10T10:26:02;100528.58;;;17.10;29.77
78841;BME280;68379;47.190;27.558;2023-05-10T10:28:41;100528.23;;;17.23;29.66
78841;BME280;68379;47.190;27.558;2023-05-10T10:31:26;100528.09;;;17.44;28.87
78841;BME280;68379;47.190;27.558;2023-05-10T10:34:03;100526.28;;;17.69;26.94
78841;BME280;68379;47.190;27.558;2023-05-10T10:36:40;100527.52;;;18.01;27.19
78841;BME280;68379;47.190;27.558;2023-05-10T10:39:11;100520.85;;;18.58;26.06
78841;BME280;68379;47.190;27.558;2023-05-10T10:41:50;100515.70;;;19.03;24.79
78841;BME280;68379;47.190;27.558;2023-05-10T10:44:37;100513.87;;;19.59;25.55
78841;BME280;68379;47.190;27.558;2023-05-10T10:47:24;100515.13;;;20.10;24.99
78841;BME280;68379;47.190;27.558;2023-05-10T10:50:06;100511.11;;;19.90;23.26
78841;BME280;68379;47.190;27.558;2023-05-10T10:52:37;100514.25;;;19.99;24.45
78841;BME280;68379;47.190;27.558;2023-05-10T10:55:09;100510.38;;;20.22;23.73
78841;BME280;68379;47.190;27.558;2023-05-10T10:57:49;100511.77;;;20.40;23.42
78841;BME280;68379;47.190;27.558;2023-05-10T11:00:22;100514.62;;;20.67;22.92
78841;BME280;68379;47.190;27.558;2023-05-10T11:02:53;100508.79;;;20.63;21.94
78841;BME280;68379;47.190;27.558;2023-05-10T11:05:40;100506.98;;;20.29;22.08
78841;BME280;68379;47.190;27.558;2023-05-10T11:08:15;100503.98;;;20.02;22.41
78841;BME280;68379;47.190;27.558;2023-05-10T11:11:02;100506.45;;;19.98;24.09
78841;BME280;68379;47.190;27.558;2023-05-10T11:13:33;100498.54;;;20.09;23.72
78841;BME280;68379;47.190;27.558;2023-05-10T11:16:17;100498.67;;;20.09;23.74
78841;BME280;68379;47.190;27.558;2023-05-10T11:18:59;100502.02;;;19.62;22.44
78841;BME280;68379;47.190;27.558;2023-05-10T11:21:30;100503.33;;;19.37;22.31
78841;BME280;68379;47.190;27.558;2023-05-10T11:24:01;100503.30;;;19.23;23.35
78841;BME280;68379;47.190;27.558;2023-05-10T11:26:35;100504.09;;;19.14;22.38
78841;BME280;68379;47.190;27.558;2023-05-10T11:29:04;100500.86;;;18.94;22.73
78841;BME280;68379;47.190;27.558;2023-05-10T11:31:34;100501.29;;;19.01;23.94
78841;BME280;68379;47.190;27.558;2023-05-10T11:34:03;100502.63;;;19.17;23.80
78841;BME280;68379;47.190;27.558;2023-05-10T11:36:35;100499.10;;;19.35;24.29
78841;BME280;68379;47.190;27.558;2023-05-10T11:39:04;100500.27;;;19.61;24.31
78841;BME280;68379;47.190;27.558;2023-05-10T11:41:34;100497.82;;;19.85;23.70
78841;BME280;68379;47.190;27.558;2023-05-10T11:44:03;100497.98;;;19.88;22.89
78841;BME280;68379;47.190;27.558;2023-05-10T11:46:33;100499.16;;;19.86;23.15
78841;BME280;68379;47.190;27.558;2023-05-10T11:49:02;100493.67;;;19.88;22.50
78841;BME280;68379;47.190;27.558;2023-05-10T11:51:37;100493.86;;;19.69;22.00
78841;BME280;68379;47.190;27.558;2023-05-10T11:54:08;100491.41;;;19.54;22.04
78841;BME280;68379;47.190;27.558;2023-05-10T11:56:38;100494.91;;;19.56;22.58
78841;BME280;68379;47.190;27.558;2023-05-10T11:59:08;100494.14;;;19.78;22.26
78841;BME280;68379;47.190;27.558;2023-05-10T12:01:37;100490.63;;;19.77;21.94
78841;BME280;68379;47.190;27.558;2023-05-10T12:04:07;100490.09;;;19.72;21.98
78841;BME280;68379;47.190;27.558;2023-05-10T12:06:39;100487.14;;;20.28;21.86
78841;BME280;68379;47.190;27.558;2023-05-10T12:09:09;100485.45;;;20.73;22.31
78841;BME280;68379;47.190;27.558;2023-05-10T12:11:40;100482.54;;;20.43;24.60
78841;BME280;68379;47.190;27.558;2023-05-10T12:14:09;100487.42;;;19.90;26.07
78841;BME280;68379;47.190;27.558;2023-05-10T12:16:38;100485.37;;;19.61;26.35
78841;BME280;68379;47.190;27.558;2023-05-10T12:19:07;100488.35;;;19.52;26.49
78841;BME280;68379;47.190;27.558;2023-05-10T12:21:36;100479.48;;;19.42;26.90
78841;BME280;68379;47.190;27.558;2023-05-10T12:24:07;100478.45;;;19.39;26.80
78841;BME280;68379;47.190;27.558;2023-05-10T12:26:37;100476.77;;;19.26;26.20
78841;BME280;68379;47.190;27.558;2023-05-10T12:29:16;100473.61;;;19.14;26.64
78841;BME280;68379;47.190;27.558;2023-05-10T12:31:53;100478.00;;;19.65;25.38
78841;BME280;68379;47.190;27.558;2023-05-10T12:34:29;100477.92;;;19.87;25.77
78841;BME280;68379;47.190;27.558;2023-05-10T12:36:59;100472.42;;;19.86;25.58
78841;BME280;68379;47.190;27.558;2023-05-10T12:39:40;100471.80;;;20.29;25.46
78841;BME280;68379;47.190;27.558;2023-05-10T12:42:10;100472.57;;;20.85;25.27
78841;BME280;68379;47.190;27.558;2023-05-10T12:44:39;100468.52;;;21.23;25.08
78841;BME280;68379;47.190;27.558;2023-05-10T12:47:08;100460.13;;;21.82;24.15
78841;BME280;68379;47.190;27.558;2023-05-10T12:49:39;100458.19;;;22.15;22.89
78841;BME280;68379;47.190;27.558;2023-05-10T12:52:08;100453.05;;;22.76;22.00
78841;BME280;68379;47.190;27.558;2023-05-10T12:54:37;100453.24;;;22.69;22.37
78841;BME280;68379;47.190;27.558;2023-05-10T12:57:06;100449.19;;;22.72;22.09
78841;BME280;68379;47.190;27.558;2023-05-10T12:59:35;100447.37;;;23.01;21.16
78841;BME280;68379;47.190;27.558;2023-05-10T13:02:04;100449.52;;;22.67;21.35
78841;BME280;68379;47.190;27.558;2023-05-10T13:04:33;100446.09;;;22.82;21.47
78841;BME280;68379;47.190;27.558;2023-05-10T13:07:02;100441.77;;;23.06;21.58
78841;BME280;68379;47.190;27.558;2023-05-10T13:09:32;100444.46;;;22.32;20.72
78841;BME280;68379;47.190;27.558;2023-05-10T13:12:01;100443.91;;;22.04;22.56
78841;BME280;68379;47.190;27.558;2023-05-10T13:14:30;100439.66;;;21.78;23.22
78841;BME280;68379;47.190;27.558;2023-05-10T13:16:59;100440.25;;;21.53;22.82
78841;BME280;68379;47.190;27.558;2023-05-10T13:19:28;100438.20;;;21.35;22.93
78841;BME280;68379;47.190;27.558;2023-05-10T13:21:58;100437.02;;;21.77;22.63
78841;BME280;68379;47.190;27.558;2023-05-10T13:24:27;100432.33;;;22.35;22.73
78841;BME280;68379;47.190;27.558;2023-05-10T13:26:56;100428.17;;;22.35;21.61
78841;BME280;68379;47.190;27.558;2023-05-10T13:29:25;100430.40;;;22.13;21.75
78841;BME280;68379;47.190;27.558;2023-05-10T13:31:54;100426.63;;;21.83;21.93
78841;BME280;68379;47.190;27.558;2023-05-10T13:34:23;100426.88;;;21.61;23.08